Airfield :
LOGIN :

Register | Disclaimer

   EN    FR    IT 

 










Legend :    VFR   Marginal VFR   IFR   Intensive IFR   Very Intensive IFR
Visi :
Ceiling :
>= 8 km
>= 3000ft
5 to 8 km
1000 to 3000 ft
1500m to 5 km
500 to 1000 ft
800 to 1500m
200 to 500 ft
< 800m
< 200 ft
Symbols :   Thunderstorms  Fog  Heavy snow  Heavy precipitations  Wind > 20 kt
SIGMETs :     Misc.  Thunderstorms  Icing  Turbulence  Mountain Waves  Volcanic Ashes







- Airport Elevation : 296 ft
- IATA code : GKE


ETNG - Geilenkirchen

CURRENT METAR :
  • 180707Z 00000KT 5000 MIFG SCT230 09/08 Q1014 NOSIG

EXPIRED METARs :
  • 180650Z 00000KT 0900 R09/0850 FG SCT230 08/07 Q1014 BECMG 2000 MIFG
  • 180621Z 08000KT 0800 R09/0550 FG SCT230 07/06 Q1013 BECMG 1500 MIFG
  • 180600Z 08001KT 0500 R09/0500 FG FEW002 07/06 Q1014 BECMG 1500 MIFG
  • 180550Z 08001KT 0200 R09/0250 FG SCT002 07/07 Q1014 BECMG 1500 MIFG
  • 180450Z 09003KT 0500 FG FEW002 09/08 Q1014

TAF COR TAF ETNG
Valid from the 18 at 06:00 until the 18 at 21:00 UTC


180500Z 1806/1821 15003KT 4000 MIFG NSC
TEMPO 1806/1808 2000 MIFG
PROB40
TEMPO 1806/1807 0500 FG BKN002
BECMG 1807/1809 21005KT CAVOK
No reported NOTAMs for that airfield.



MET'MAP, your aeronautical weather chart ! - Copyright ORBIFLY December 2007 - Disclaimer

ORBIFLY MET'MAP TEAM :

Programming & Development : Alexandra Zaïnal
Concept & Development : Baudouin d'Aumeries
Co-Development & Prog : Marc-Olivier Méhu
Technical & hardware support : Manuel Goepfert

Contact : metmap@orbifly.com




SOURCES & CREDITS :

   NOAA